createdAt,value
2023-06-17T00:02:03.053Z,100.00
2023-06-17T00:04:30.595Z,100.00
2023-06-17T00:06:58.185Z,100.00
2023-06-17T00:09:27.478Z,100.00
2023-06-17T00:11:57.795Z,100.00
2023-06-17T00:14:26.323Z,100.00
2023-06-17T00:16:55.442Z,100.00
2023-06-17T00:19:23.785Z,100.00
2023-06-17T00:21:51.416Z,100.00
2023-06-17T00:24:19.081Z,100.00
2023-06-17T00:26:46.814Z,100.00
2023-06-17T00:29:16.398Z,100.00
2023-06-17T00:31:43.926Z,100.00
2023-06-17T00:34:12.806Z,100.00
2023-06-17T00:36:40.357Z,100.00
2023-06-17T00:39:08.102Z,100.00
2023-06-17T00:41:35.683Z,100.00
2023-06-17T00:44:04.033Z,100.00
2023-06-17T00:46:37.762Z,100.00
2023-06-17T00:49:06.773Z,100.00
2023-06-17T00:51:35.920Z,100.00
2023-06-17T00:54:03.737Z,100.00
2023-06-17T00:56:32.788Z,100.00
2023-06-17T00:59:03.083Z,100.00
2023-06-17T01:01:30.922Z,100.00
2023-06-17T01:04:00.280Z,100.00
2023-06-17T01:06:51.693Z,100.00
2023-06-17T01:09:25.325Z,100.00
2023-06-17T01:11:57.609Z,100.00
2023-06-17T01:14:26.879Z,100.00
2023-06-17T01:16:55.773Z,100.00
2023-06-17T01:19:26.269Z,100.00
2023-06-17T01:21:55.870Z,100.00
2023-06-17T01:24:30.960Z,100.00
2023-06-17T01:27:01.187Z,100.00
2023-06-17T01:29:30.412Z,100.00
2023-06-17T01:31:58.950Z,100.00
2023-06-17T01:34:34.037Z,100.00
2023-06-17T01:37:05.380Z,100.00
2023-06-17T01:39:37.855Z,100.00
2023-06-17T01:42:09.054Z,100.00
2023-06-17T01:44:38.262Z,100.00
2023-06-17T01:47:10.414Z,100.00
2023-06-17T01:49:38.378Z,100.00
2023-06-17T01:52:08.115Z,100.00
2023-06-17T01:54:37.137Z,100.00
2023-06-17T01:57:05.170Z,100.00
2023-06-17T01:59:32.690Z,100.00
2023-06-17T02:02:00.388Z,100.00
2023-06-17T02:04:27.914Z,100.00
2023-06-17T02:06:56.132Z,100.00
2023-06-17T02:09:23.683Z,100.00
2023-06-17T02:11:52.636Z,100.00
2023-06-17T02:14:20.257Z,100.00
2023-06-17T02:16:48.642Z,100.00
2023-06-17T02:19:16.802Z,100.00
2023-06-17T02:21:44.795Z,100.00
2023-06-17T02:24:12.713Z,100.00
2023-06-17T02:26:40.667Z,100.00
2023-06-17T02:29:09.577Z,100.00
2023-06-17T02:31:37.175Z,100.00
2023-06-17T02:34:04.896Z,100.00
2023-06-17T02:36:32.465Z,100.00
2023-06-17T02:39:00.996Z,100.00
2023-06-17T02:41:28.538Z,100.00
2023-06-17T02:43:56.086Z,100.00
2023-06-17T02:46:25.340Z,100.00
2023-06-17T02:48:52.943Z,100.00
2023-06-17T02:51:21.250Z,100.00
2023-06-17T02:53:48.799Z,100.00
2023-06-17T02:56:16.406Z,100.00
2023-06-17T02:58:44.669Z,100.00
2023-06-17T03:01:13.935Z,100.00
2023-06-17T03:03:43.117Z,100.00
2023-06-17T03:06:10.756Z,100.00
2023-06-17T03:08:40.276Z,100.00
2023-06-17T03:11:07.818Z,100.00
2023-06-17T03:13:35.542Z,100.00
2023-06-17T03:16:03.839Z,100.00
2023-06-17T03:18:31.384Z,100.00
2023-06-17T03:21:00.257Z,100.00
2023-06-17T03:23:27.797Z,100.00
2023-06-17T03:25:56.082Z,100.00
2023-06-17T03:28:23.647Z,100.00
2023-06-17T03:30:51.680Z,100.00
2023-06-17T03:33:19.213Z,100.00
2023-06-17T03:35:46.752Z,100.00
2023-06-17T03:38:15.599Z,100.00
2023-06-17T03:40:43.122Z,100.00
2023-06-17T03:43:10.647Z,100.00
2023-06-17T03:45:38.221Z,100.00
2023-06-17T03:48:06.214Z,100.00
2023-06-17T03:50:33.819Z,100.00
2023-06-17T03:53:01.342Z,100.00
2023-06-17T03:55:30.332Z,100.00
2023-06-17T03:57:57.924Z,100.00
2023-06-17T04:00:25.425Z,100.00
2023-06-17T04:02:53.060Z,100.00
2023-06-17T04:05:21.435Z,100.00
2023-06-17T04:07:50.031Z,100.00
2023-06-17T04:10:17.634Z,100.00
2023-06-17T04:12:46.509Z,100.00
2023-06-17T04:15:14.138Z,100.00
2023-06-17T04:17:41.693Z,100.00
2023-06-17T04:20:12.303Z,100.00
2023-06-17T04:22:40.627Z,100.00
2023-06-17T04:25:09.773Z,100.00
2023-06-17T04:27:37.748Z,100.00
2023-06-17T04:30:09.646Z,100.00
2023-06-17T04:32:40.003Z,100.00
2023-06-17T04:35:10.151Z,100.00
2023-06-17T04:37:37.908Z,95.54
2023-06-17T04:40:07.922Z,84.63
2023-06-17T04:42:35.616Z,68.58
2023-06-17T04:45:03.764Z,61.31
2023-06-17T04:47:32.660Z,51.15
2023-06-17T04:50:00.239Z,48.38
2023-06-17T04:52:30.810Z,46.72
2023-06-17T04:54:58.314Z,44.55
2023-06-17T04:57:25.848Z,44.45
2023-06-17T04:59:53.359Z,43.96
2023-06-17T05:02:20.973Z,43.69
2023-06-17T05:04:49.838Z,43.79
2023-06-17T05:07:17.413Z,43.41
2023-06-17T05:09:45.026Z,42.70
2023-06-17T05:12:12.672Z,41.49
2023-06-17T05:14:40.835Z,41.12
2023-06-17T05:17:08.555Z,40.30
2023-06-17T05:19:36.134Z,39.56
2023-06-17T05:22:05.049Z,38.22
2023-06-17T05:24:32.684Z,37.14
2023-06-17T05:27:00.195Z,35.91
2023-06-17T05:29:27.702Z,34.46
2023-06-17T05:31:55.214Z,33.06
2023-06-17T05:34:22.750Z,31.95
2023-06-17T05:36:50.274Z,31.06
2023-06-17T05:39:19.178Z,30.59
2023-06-17T05:41:46.740Z,30.44
2023-06-17T05:44:14.296Z,29.88
2023-06-17T05:46:41.891Z,29.74
2023-06-17T05:49:09.516Z,29.66
2023-06-17T05:51:37.052Z,29.53
2023-06-17T05:54:04.714Z,29.25
2023-06-17T05:56:33.552Z,29.61
2023-06-17T05:59:01.122Z,31.28
2023-06-17T06:01:28.735Z,32.04
2023-06-17T06:03:57.049Z,33.19
2023-06-17T06:06:24.650Z,35.58
2023-06-17T06:08:52.760Z,37.71
2023-06-17T06:11:20.308Z,38.66
2023-06-17T06:13:49.166Z,39.03
2023-06-17T06:16:17.036Z,38.08
2023-06-17T06:18:44.618Z,37.33
2023-06-17T06:21:12.122Z,36.07
2023-06-17T06:23:39.730Z,35.95
2023-06-17T06:26:07.268Z,34.36
2023-06-17T06:28:34.780Z,33.36
2023-06-17T06:31:04.074Z,33.12
2023-06-17T06:33:31.593Z,33.28
2023-06-17T06:35:59.125Z,33.76
2023-06-17T06:38:26.643Z,33.57
2023-06-17T06:40:54.139Z,33.47
2023-06-17T06:43:21.687Z,32.74
2023-06-17T06:45:49.556Z,31.71
2023-06-17T06:48:18.559Z,30.53
2023-06-17T06:50:46.055Z,29.34
2023-06-17T06:53:13.619Z,27.45
2023-06-17T06:55:41.187Z,26.34
2023-06-17T06:58:08.718Z,26.08
2023-06-17T07:00:36.236Z,24.57
2023-06-17T07:03:03.840Z,24.07
2023-06-17T07:05:32.832Z,24.22
2023-06-17T07:08:01.881Z,24.11
2023-06-17T07:10:29.400Z,24.36
2023-06-17T07:12:57.209Z,25.23
2023-06-17T07:15:24.777Z,24.92
2023-06-17T07:17:52.457Z,24.08
2023-06-17T07:20:20.149Z,23.81
2023-06-17T07:22:49.316Z,28.86
2023-06-17T07:25:17.191Z,27.44
2023-06-17T07:27:44.736Z,30.27
2023-06-17T07:30:13.508Z,32.76
2023-06-17T07:32:41.082Z,34.83
2023-06-17T07:35:09.323Z,37.12
2023-06-17T07:37:36.933Z,35.01
2023-06-17T07:40:07.558Z,32.88
2023-06-17T07:42:35.113Z,35.52
2023-06-17T07:45:02.665Z,35.27
2023-06-17T07:47:30.255Z,36.98
2023-06-17T07:49:57.873Z,39.00
2023-06-17T07:52:25.453Z,37.95
2023-06-17T07:54:53.867Z,34.12
2023-06-17T07:57:22.705Z,34.34
2023-06-17T07:59:50.266Z,32.92
2023-06-17T08:02:18.742Z,31.91
2023-06-17T08:04:46.426Z,33.47
2023-06-17T08:07:14.158Z,30.97
2023-06-17T08:09:41.709Z,32.64
2023-06-17T08:12:10.035Z,31.08
2023-06-17T08:14:38.893Z,30.30
2023-06-17T08:17:07.270Z,32.57
2023-06-17T08:19:35.192Z,36.80
2023-06-17T08:22:02.721Z,35.05
2023-06-17T08:24:30.328Z,34.87
2023-06-17T08:26:57.936Z,35.36
2023-06-17T08:29:26.289Z,35.54
2023-06-17T08:31:55.501Z,35.91
2023-06-17T08:34:23.561Z,35.02
2023-06-17T08:36:53.947Z,35.97
2023-06-17T08:39:21.668Z,34.65
2023-06-17T08:41:49.560Z,35.22
2023-06-17T08:44:17.864Z,34.90
2023-06-17T08:46:46.687Z,36.97
2023-06-17T08:49:15.812Z,35.38
2023-06-17T08:51:44.934Z,34.81
2023-06-17T08:54:12.644Z,35.00
2023-06-17T08:56:40.524Z,35.96
2023-06-17T08:59:08.103Z,33.65
2023-06-17T09:01:37.415Z,32.30
2023-06-17T09:04:05.527Z,32.89
2023-06-17T09:06:34.368Z,34.21
2023-06-17T09:09:01.889Z,35.20
2023-06-17T09:11:32.009Z,33.47
2023-06-17T09:14:00.980Z,31.59
2023-06-17T09:16:29.709Z,32.97
2023-06-17T09:18:57.454Z,35.80
2023-06-17T09:21:26.258Z,37.51
2023-06-17T09:23:56.602Z,35.32
2023-06-17T09:26:30.408Z,37.51
2023-06-17T09:29:03.806Z,36.49
2023-06-17T09:31:31.772Z,36.91
2023-06-17T09:33:59.945Z,36.18
2023-06-17T09:36:27.587Z,36.97
2023-06-17T09:38:56.498Z,35.67
2023-06-17T09:41:24.849Z,34.51
2023-06-17T09:43:53.661Z,36.03
2023-06-17T09:46:30.818Z,36.77
2023-06-17T09:48:59.344Z,39.35
2023-06-17T09:51:27.432Z,37.81
2023-06-17T09:53:56.700Z,37.12
2023-06-17T09:56:26.120Z,36.85
2023-06-17T09:58:57.442Z,37.23
2023-06-17T10:01:30.222Z,38.12
2023-06-17T10:03:57.924Z,39.98
2023-06-17T10:06:28.186Z,38.44
2023-06-17T10:08:57.857Z,37.70
2023-06-17T10:11:26.979Z,36.09
2023-06-17T10:13:58.641Z,35.21
2023-06-17T10:16:29.254Z,35.74
2023-06-17T10:19:01.096Z,36.43
2023-06-17T10:21:30.843Z,33.05
2023-06-17T10:24:02.175Z,32.87
2023-06-17T10:26:32.052Z,35.84
2023-06-17T10:29:01.812Z,37.34
2023-06-17T10:31:31.173Z,37.45
2023-06-17T10:34:01.985Z,37.55
2023-06-17T10:36:29.712Z,38.92
2023-06-17T10:38:59.426Z,38.66
2023-06-17T10:41:56.966Z,39.27
2023-06-17T10:44:29.263Z,39.30
2023-06-17T10:46:57.840Z,37.83
2023-06-17T10:49:26.074Z,35.95
2023-06-17T10:51:58.956Z,33.65
2023-06-17T10:54:32.735Z,32.09
2023-06-17T10:57:02.793Z,33.68
2023-06-17T10:59:33.193Z,32.12
2023-06-17T11:02:02.381Z,33.84
2023-06-17T11:04:31.702Z,33.70
2023-06-17T11:06:59.735Z,33.52
2023-06-17T11:09:27.593Z,33.31
2023-06-17T11:11:57.158Z,32.82
2023-06-17T11:14:25.797Z,36.51
2023-06-17T11:16:53.586Z,34.99
2023-06-17T11:19:21.263Z,33.39
2023-06-17T11:21:52.022Z,34.10
2023-06-17T11:24:19.862Z,36.04
2023-06-17T11:26:47.399Z,37.91
2023-06-17T11:29:16.669Z,37.94
2023-06-17T11:31:44.990Z,37.92
2023-06-17T11:34:13.901Z,37.88
2023-06-17T11:36:41.600Z,36.10
2023-06-17T11:39:10.239Z,35.49
2023-06-17T11:41:38.364Z,33.60
2023-06-17T11:44:06.653Z,33.55
2023-06-17T11:46:38.389Z,31.64
2023-06-17T11:49:07.319Z,32.34
2023-06-17T11:51:34.813Z,29.98
2023-06-17T11:54:06.354Z,29.97
2023-06-17T11:56:34.411Z,29.51
2023-06-17T11:59:03.919Z,30.66
2023-06-17T12:01:31.553Z,31.68
2023-06-17T12:04:00.619Z,29.82
2023-06-17T12:06:29.086Z,29.88
2023-06-17T12:08:57.927Z,32.42
2023-06-17T12:11:29.327Z,34.65
2023-06-17T12:13:57.404Z,31.71
2023-06-17T12:16:25.782Z,34.13
2023-06-17T12:18:53.892Z,33.53
2023-06-17T12:21:23.457Z,32.85
2023-06-17T12:23:52.075Z,30.55
2023-06-17T12:26:20.228Z,30.52
2023-06-17T12:28:47.793Z,31.27
2023-06-17T12:31:15.643Z,31.01
2023-06-17T12:33:43.189Z,31.00
2023-06-17T12:36:10.835Z,32.80
2023-06-17T12:38:40.621Z,30.30
2023-06-17T12:41:08.727Z,30.58
2023-06-17T12:43:36.531Z,32.61
2023-06-17T12:46:04.156Z,34.80
2023-06-17T12:48:34.682Z,33.55
2023-06-17T12:51:02.384Z,33.58
2023-06-17T12:53:30.262Z,33.11
2023-06-17T12:55:59.725Z,31.30
2023-06-17T12:58:28.033Z,31.32
2023-06-17T13:00:56.779Z,29.88
2023-06-17T13:03:24.305Z,29.83
2023-06-17T13:05:52.826Z,31.99
2023-06-17T13:08:20.528Z,29.13
2023-06-17T13:10:48.124Z,29.93
2023-06-17T13:13:17.018Z,29.88
2023-06-17T13:15:44.811Z,30.80
2023-06-17T13:18:13.830Z,33.15
2023-06-17T13:20:41.527Z,32.21
2023-06-17T13:23:09.093Z,32.31
2023-06-17T13:25:36.795Z,33.48
2023-06-17T13:28:04.354Z,33.96
2023-06-17T13:30:34.304Z,34.74
2023-06-17T13:33:02.489Z,34.99
2023-06-17T13:35:30.059Z,32.99
2023-06-17T13:37:59.565Z,32.78
2023-06-17T13:40:27.152Z,32.59
2023-06-17T13:42:54.674Z,30.86
2023-06-17T13:45:22.377Z,32.65
2023-06-17T13:47:51.824Z,32.74
2023-06-17T13:50:19.681Z,32.17
2023-06-17T13:52:47.540Z,31.87
2023-06-17T13:55:15.066Z,31.54
2023-06-17T13:57:42.606Z,30.79
2023-06-17T14:00:10.740Z,30.76
2023-06-17T14:02:38.393Z,33.13
2023-06-17T14:05:08.551Z,33.36
2023-06-17T14:07:36.066Z,33.13
2023-06-17T14:10:03.969Z,30.71
2023-06-17T14:12:32.010Z,31.22
2023-06-17T14:14:59.523Z,31.99
2023-06-17T14:17:27.346Z,32.35
2023-06-17T14:19:54.939Z,32.60
2023-06-17T14:22:24.086Z,31.65
2023-06-17T14:24:51.621Z,30.45
2023-06-17T14:27:40.732Z,29.88
2023-06-17T14:30:11.781Z,29.59
2023-06-17T14:32:39.468Z,30.15
2023-06-17T14:35:08.018Z,29.45
2023-06-17T14:37:37.618Z,29.82
2023-06-17T14:40:05.801Z,29.05
2023-06-17T14:42:33.980Z,28.89
2023-06-17T14:45:01.525Z,28.90
2023-06-17T14:47:29.388Z,29.57
2023-06-17T14:49:57.054Z,28.56
2023-06-17T14:52:26.891Z,28.74
2023-06-17T14:54:56.058Z,30.12
2023-06-17T14:57:23.960Z,29.03
2023-06-17T14:59:51.600Z,30.19
2023-06-17T15:02:27.476Z,30.62
2023-06-17T15:04:55.040Z,29.05
2023-06-17T15:07:22.577Z,29.05
2023-06-17T15:09:50.081Z,28.32
2023-06-17T15:12:18.939Z,29.50
2023-06-17T15:14:49.375Z,29.98
2023-06-17T15:17:17.088Z,28.72
2023-06-17T15:19:45.258Z,28.74
2023-06-17T15:22:13.138Z,28.95
2023-06-17T15:24:40.772Z,29.95
2023-06-17T15:27:08.422Z,28.54
2023-06-17T15:29:37.288Z,29.06
2023-06-17T15:32:05.553Z,29.70
2023-06-17T15:34:33.066Z,29.15
2023-06-17T15:37:00.563Z,30.46
2023-06-17T15:39:29.580Z,31.13
2023-06-17T15:41:57.092Z,31.31
2023-06-17T15:44:24.696Z,30.87
2023-06-17T15:46:53.618Z,31.07
2023-06-17T15:49:21.159Z,30.99
2023-06-17T15:51:48.909Z,30.40
2023-06-17T15:54:16.470Z,31.23
2023-06-17T15:56:47.151Z,30.03
2023-06-17T15:59:14.964Z,30.55
2023-06-17T16:01:42.567Z,30.42
2023-06-17T16:04:41.887Z,31.10
2023-06-17T16:07:10.918Z,29.69
2023-06-17T16:09:40.173Z,31.08
2023-06-17T16:12:08.734Z,31.34
2023-06-17T16:14:36.784Z,31.83
2023-06-17T16:17:06.931Z,32.43
2023-06-17T16:19:36.879Z,32.45
2023-06-17T16:22:08.427Z,31.76
2023-06-17T16:24:36.000Z,31.93
2023-06-17T16:27:04.021Z,32.89
2023-06-17T16:29:32.059Z,32.25
2023-06-17T16:31:59.652Z,31.41
2023-06-17T16:34:27.217Z,30.73
2023-06-17T16:36:56.079Z,31.14
2023-06-17T16:39:23.653Z,30.63
2023-06-17T16:41:51.214Z,30.87
2023-06-17T16:44:19.195Z,31.74
2023-06-17T16:46:47.721Z,31.56
2023-06-17T16:49:15.321Z,31.66
2023-06-17T16:51:42.845Z,32.32
2023-06-17T16:54:11.956Z,33.08
2023-06-17T16:56:39.833Z,33.67
2023-06-17T16:59:07.403Z,33.41
2023-06-17T17:01:35.068Z,32.82
2023-06-17T17:04:09.524Z,32.72
2023-06-17T17:06:37.087Z,33.30
2023-06-17T17:09:04.839Z,32.71
2023-06-17T17:11:33.919Z,32.00
2023-06-17T17:14:01.711Z,32.66
2023-06-17T17:16:29.600Z,33.02
2023-06-17T17:18:57.203Z,32.30
2023-06-17T17:21:25.027Z,32.92
2023-06-17T17:23:52.669Z,32.28
2023-06-17T17:26:20.197Z,33.09
2023-06-17T17:28:49.069Z,32.64
2023-06-17T17:31:16.585Z,32.22
2023-06-17T17:33:45.114Z,32.29
2023-06-17T17:36:13.008Z,32.44
2023-06-17T17:38:40.859Z,32.14
2023-06-17T17:41:08.376Z,31.75
2023-06-17T17:43:37.114Z,31.86
2023-06-17T17:46:07.339Z,32.46
2023-06-17T17:48:35.759Z,33.25
2023-06-17T17:51:03.470Z,32.58
2023-06-17T17:53:31.852Z,32.89
2023-06-17T17:55:59.466Z,32.87
2023-06-17T17:58:27.006Z,32.64
2023-06-17T18:00:56.612Z,32.85
2023-06-17T18:03:25.621Z,32.55
2023-06-17T18:05:53.370Z,33.17
2023-06-17T18:08:20.899Z,33.16
2023-06-17T18:10:48.420Z,33.53
2023-06-17T18:13:15.942Z,33.39
2023-06-17T18:15:43.467Z,34.12
2023-06-17T18:18:10.998Z,33.42
2023-06-17T18:20:39.919Z,33.64
2023-06-17T18:23:08.199Z,33.46
2023-06-17T18:25:35.731Z,33.60
2023-06-17T18:28:03.247Z,33.41
2023-06-17T18:30:31.428Z,33.57
2023-06-17T18:32:59.000Z,33.68
2023-06-17T18:35:26.574Z,34.67
2023-06-17T18:37:55.418Z,34.49
2023-06-17T18:40:23.175Z,33.98
2023-06-17T18:42:50.943Z,35.50
2023-06-17T18:45:18.776Z,35.43
2023-06-17T18:47:46.342Z,34.72
2023-06-17T18:50:13.839Z,35.64
2023-06-17T18:52:41.357Z,35.87
2023-06-17T18:55:10.800Z,36.10
2023-06-17T18:57:38.411Z,35.87
2023-06-17T19:00:07.328Z,36.33
2023-06-17T19:02:35.052Z,36.58
2023-06-17T19:05:05.669Z,39.08
2023-06-17T19:07:33.745Z,39.88
2023-06-17T19:10:01.874Z,40.25
2023-06-17T19:12:31.785Z,40.38
2023-06-17T19:14:59.662Z,40.67
2023-06-17T19:17:27.483Z,41.31
2023-06-17T19:19:55.056Z,41.55
2023-06-17T19:22:22.612Z,42.40
2023-06-17T19:24:50.222Z,43.98
2023-06-17T19:27:17.746Z,44.63
2023-06-17T19:29:46.668Z,45.62
2023-06-17T19:32:14.232Z,45.80
2023-06-17T19:34:41.868Z,46.15
2023-06-17T19:37:09.432Z,46.69
2023-06-17T19:39:36.955Z,46.63
2023-06-17T19:42:04.928Z,46.89
2023-06-17T19:44:34.472Z,47.58
2023-06-17T19:47:03.377Z,47.51
2023-06-17T19:49:31.202Z,47.79
2023-06-17T19:51:58.727Z,47.85
2023-06-17T19:54:26.224Z,49.02
2023-06-17T19:56:53.911Z,48.99
2023-06-17T19:59:21.736Z,49.46
2023-06-17T20:01:49.349Z,48.89
2023-06-17T20:04:18.391Z,49.41
2023-06-17T20:06:46.026Z,49.28
2023-06-17T20:09:13.590Z,49.18
2023-06-17T20:11:41.128Z,49.34
2023-06-17T20:14:08.700Z,49.72
2023-06-17T20:16:37.080Z,50.05
2023-06-17T20:19:04.611Z,51.65
2023-06-17T20:21:33.459Z,52.65
2023-06-17T20:24:01.044Z,53.09
2023-06-17T20:26:29.878Z,53.91
2023-06-17T20:28:57.413Z,54.03
2023-06-17T20:31:24.987Z,54.16
2023-06-17T20:33:52.508Z,54.10
2023-06-17T20:36:20.070Z,53.74
2023-06-17T20:38:48.911Z,53.60
2023-06-17T20:41:16.524Z,53.82
2023-06-17T20:43:44.134Z,54.38
2023-06-17T20:46:12.091Z,54.65
2023-06-17T20:48:39.645Z,55.26
2023-06-17T20:51:09.668Z,55.99
2023-06-17T20:53:37.276Z,56.49
2023-06-17T20:56:06.340Z,57.04
2023-06-17T20:58:33.976Z,56.72
2023-06-17T21:01:01.550Z,56.89
2023-06-17T21:03:29.122Z,57.04
2023-06-17T21:05:56.885Z,56.76
2023-06-17T21:08:24.455Z,56.43
2023-06-17T21:10:51.991Z,56.50
2023-06-17T21:13:20.878Z,57.07
2023-06-17T21:15:48.403Z,58.10
2023-06-17T21:18:16.031Z,59.03
2023-06-17T21:20:43.552Z,59.86
2023-06-17T21:23:11.072Z,61.12
2023-06-17T21:25:38.626Z,61.10
2023-06-17T21:28:06.194Z,60.41
2023-06-17T21:30:35.083Z,61.48
2023-06-17T21:33:02.638Z,60.98
2023-06-17T21:35:30.238Z,60.84
2023-06-17T21:37:59.174Z,61.27
2023-06-17T21:40:26.818Z,61.35
2023-06-17T21:42:54.370Z,61.50
2023-06-17T21:45:22.474Z,61.91
2023-06-17T21:47:51.397Z,62.65
2023-06-17T21:50:19.259Z,63.41
2023-06-17T21:52:46.912Z,63.61
2023-06-17T21:55:14.491Z,64.17
2023-06-17T21:57:42.067Z,64.85
2023-06-17T22:00:10.570Z,65.18
2023-06-17T22:02:38.171Z,65.28
2023-06-17T22:05:07.774Z,65.50
2023-06-17T22:07:35.436Z,66.07
2023-06-17T22:10:03.134Z,66.05
2023-06-17T22:12:31.414Z,65.54
2023-06-17T22:15:00.170Z,65.26
2023-06-17T22:17:28.913Z,65.13
2023-06-17T22:19:56.447Z,64.84
2023-06-17T22:22:25.356Z,65.01
2023-06-17T22:24:52.856Z,65.11
2023-06-17T22:27:20.526Z,65.50
2023-06-17T22:29:48.101Z,66.74
2023-06-17T22:32:15.737Z,67.69
2023-06-17T22:34:43.244Z,68.38
2023-06-17T22:37:10.806Z,69.10
2023-06-17T22:39:39.676Z,69.24
2023-06-17T22:42:08.427Z,69.45
2023-06-17T22:44:35.980Z,69.55
2023-06-17T22:47:03.582Z,70.48
2023-06-17T22:49:32.302Z,69.84
2023-06-17T22:51:59.845Z,69.66
2023-06-17T22:54:27.359Z,68.58
2023-06-17T22:56:56.535Z,67.74
2023-06-17T22:59:24.381Z,67.76
2023-06-17T23:01:52.006Z,68.47
2023-06-17T23:04:19.530Z,68.88
2023-06-17T23:06:47.107Z,69.15
2023-06-17T23:09:14.614Z,68.17
2023-06-17T23:11:42.158Z,70.18
2023-06-17T23:14:11.060Z,71.36
2023-06-17T23:16:38.808Z,73.00
2023-06-17T23:19:06.368Z,73.40
2023-06-17T23:21:35.209Z,72.28
2023-06-17T23:24:03.199Z,72.35
2023-06-17T23:26:30.845Z,72.55
2023-06-17T23:28:58.699Z,71.05
2023-06-17T23:31:27.667Z,71.17
2023-06-17T23:33:55.419Z,71.86
2023-06-17T23:36:24.084Z,72.41
2023-06-17T23:38:52.724Z,73.32
2023-06-17T23:41:20.312Z,72.96
2023-06-17T23:43:47.833Z,73.14
2023-06-17T23:46:16.797Z,73.74
2023-06-17T23:48:45.743Z,75.98
2023-06-17T23:51:13.310Z,79.66
2023-06-17T23:53:40.857Z,76.29
2023-06-17T23:56:08.378Z,77.08
2023-06-17T23:58:35.935Z,75.70
